sensor_id;sensor_type;location;lat;lon;timestamp;temperature;humidity
56184;DHT22;42086;53.170;6.980;2022-08-16T00:01:21;20.40;99.90
56184;DHT22;42086;53.170;6.980;2022-08-16T00:03:47;20.40;99.90
56184;DHT22;42086;53.170;6.980;2022-08-16T00:06:13;20.40;99.90
56184;DHT22;42086;53.170;6.980;2022-08-16T00:08:39;20.40;99.90
56184;DHT22;42086;53.170;6.980;2022-08-16T00:11:07;20.30;99.90
56184;DHT22;42086;53.170;6.980;2022-08-16T00:13:34;20.30;99.90
56184;DHT22;42086;53.170;6.980;2022-08-16T00:16:00;20.30;99.90
56184;DHT22;42086;53.170;6.980;2022-08-16T00:18:26;20.40;99.90
56184;DHT22;42086;53.170;6.980;2022-08-16T00:20:52;20.40;99.90
56184;DHT22;42086;53.170;6.980;2022-08-16T00:23:17;20.40;99.90
56184;DHT22;42086;53.170;6.980;2022-08-16T00:25:44;20.50;99.90
56184;DHT22;42086;53.170;6.980;2022-08-16T00:28:10;20.40;99.90
56184;DHT22;42086;53.170;6.980;2022-08-16T00:30:36;20.50;99.90
56184;DHT22;42086;53.170;6.980;2022-08-16T00:33:02;20.40;99.90
56184;DHT22;42086;53.170;6.980;2022-08-16T00:35:34;20.30;99.90
56184;DHT22;42086;53.170;6.980;2022-08-16T00:38:01;20.40;99.90
56184;DHT22;42086;53.170;6.980;2022-08-16T00:40:38;20.20;99.90
56184;DHT22;42086;53.170;6.980;2022-08-16T00:43:14;20.20;99.90
56184;DHT22;42086;53.170;6.980;2022-08-16T00:48:08;20.20;99.90
56184;DHT22;42086;53.170;6.980;2022-08-16T00:50:37;20.20;99.90
56184;DHT22;42086;53.170;6.980;2022-08-16T00:53:09;20.20;99.90
56184;DHT22;42086;53.170;6.980;2022-08-16T00:55:38;20.20;99.90
56184;DHT22;42086;53.170;6.980;2022-08-16T00:58:05;20.20;99.90
56184;DHT22;42086;53.170;6.980;2022-08-16T01:00:34;20.20;99.90
56184;DHT22;42086;53.170;6.980;2022-08-16T01:03:10;20.20;99.90
56184;DHT22;42086;53.170;6.980;2022-08-16T01:05:37;20.20;99.90
56184;DHT22;42086;53.170;6.980;2022-08-16T01:08:05;20.20;99.90
56184;DHT22;42086;53.170;6.980;2022-08-16T01:10:33;20.20;99.90
56184;DHT22;42086;53.170;6.980;2022-08-16T01:13:04;20.30;99.90
56184;DHT22;42086;53.170;6.980;2022-08-16T01:15:31;20.30;99.90
56184;DHT22;42086;53.170;6.980;2022-08-16T01:17:58;20.30;99.90
56184;DHT22;42086;53.170;6.980;2022-08-16T01:20:27;20.30;99.90
56184;DHT22;42086;53.170;6.980;2022-08-16T01:25:44;20.10;99.90
56184;DHT22;42086;53.170;6.980;2022-08-16T01:28:14;20.20;99.90
56184;DHT22;42086;53.170;6.980;2022-08-16T01:30:42;20.10;99.90
56184;DHT22;42086;53.170;6.980;2022-08-16T01:33:09;20.10;99.90
56184;DHT22;42086;53.170;6.980;2022-08-16T01:35:47;20.10;99.90
56184;DHT22;42086;53.170;6.980;2022-08-16T01:38:28;20.10;99.90
56184;DHT22;42086;53.170;6.980;2022-08-16T01:41:06;20.10;99.90
56184;DHT22;42086;53.170;6.980;2022-08-16T01:43:35;20.10;99.90
56184;DHT22;42086;53.170;6.980;2022-08-16T01:46:04;20.00;99.90
56184;DHT22;42086;53.170;6.980;2022-08-16T01:48:32;19.90;99.90
56184;DHT22;42086;53.170;6.980;2022-08-16T01:51:00;19.90;99.90
56184;DHT22;42086;53.170;6.980;2022-08-16T01:53:28;19.90;99.90
56184;DHT22;42086;53.170;6.980;2022-08-16T01:55:55;19.90;99.90
56184;DHT22;42086;53.170;6.980;2022-08-16T01:58:21;19.90;99.90
56184;DHT22;42086;53.170;6.980;2022-08-16T02:00:48;19.90;99.90
56184;DHT22;42086;53.170;6.980;2022-08-16T02:03:15;19.90;99.90
56184;DHT22;42086;53.170;6.980;2022-08-16T02:05:41;19.90;99.90
56184;DHT22;42086;53.170;6.980;2022-08-16T02:08:07;19.90;99.90
56184;DHT22;42086;53.170;6.980;2022-08-16T02:10:35;19.80;99.90
56184;DHT22;42086;53.170;6.980;2022-08-16T02:13:05;19.70;99.90
56184;DHT22;42086;53.170;6.980;2022-08-16T02:15:32;19.60;99.90
56184;DHT22;42086;53.170;6.980;2022-08-16T02:18:00;19.60;99.90
56184;DHT22;42086;53.170;6.980;2022-08-16T02:20:31;19.60;99.90
56184;DHT22;42086;53.170;6.980;2022-08-16T02:23:00;19.60;99.90
56184;DHT22;42086;53.170;6.980;2022-08-16T02:25:26;19.50;99.90
56184;DHT22;42086;53.170;6.980;2022-08-16T02:27:53;19.60;99.90
56184;DHT22;42086;53.170;6.980;2022-08-16T02:30:23;19.60;99.90
56184;DHT22;42086;53.170;6.980;2022-08-16T02:32:49;19.60;99.90
56184;DHT22;42086;53.170;6.980;2022-08-16T02:35:15;19.50;99.90
56184;DHT22;42086;53.170;6.980;2022-08-16T02:37:42;19.50;99.90
56184;DHT22;42086;53.170;6.980;2022-08-16T02:40:09;19.60;99.90
56184;DHT22;42086;53.170;6.980;2022-08-16T02:42:36;19.60;99.90
56184;DHT22;42086;53.170;6.980;2022-08-16T02:45:02;19.50;99.90
56184;DHT22;42086;53.170;6.980;2022-08-16T02:47:29;19.50;99.90
56184;DHT22;42086;53.170;6.980;2022-08-16T02:49:55;19.40;99.90
56184;DHT22;42086;53.170;6.980;2022-08-16T02:52:21;19.40;99.90
56184;DHT22;42086;53.170;6.980;2022-08-16T02:54:48;19.40;99.90
56184;DHT22;42086;53.170;6.980;2022-08-16T02:57:14;19.40;99.90
56184;DHT22;42086;53.170;6.980;2022-08-16T02:59:40;19.40;99.90
56184;DHT22;42086;53.170;6.980;2022-08-16T03:02:08;19.30;99.90
56184;DHT22;42086;53.170;6.980;2022-08-16T03:04:36;19.30;99.90
56184;DHT22;42086;53.170;6.980;2022-08-16T03:07:03;19.30;99.90
56184;DHT22;42086;53.170;6.980;2022-08-16T03:09:31;19.30;99.90
56184;DHT22;42086;53.170;6.980;2022-08-16T03:11:57;19.30;99.90
56184;DHT22;42086;53.170;6.980;2022-08-16T03:14:23;19.30;99.90
56184;DHT22;42086;53.170;6.980;2022-08-16T03:16:49;19.30;99.90
56184;DHT22;42086;53.170;6.980;2022-08-16T03:19:16;19.30;99.90
56184;DHT22;42086;53.170;6.980;2022-08-16T03:21:41;19.30;99.90
56184;DHT22;42086;53.170;6.980;2022-08-16T03:24:08;19.30;99.90
56184;DHT22;42086;53.170;6.980;2022-08-16T03:26:34;19.30;99.90
56184;DHT22;42086;53.170;6.980;2022-08-16T03:29:00;19.30;99.90
56184;DHT22;42086;53.170;6.980;2022-08-16T03:31:27;19.30;99.90
56184;DHT22;42086;53.170;6.980;2022-08-16T03:33:53;19.30;99.90
56184;DHT22;42086;53.170;6.980;2022-08-16T03:36:19;19.30;99.90
56184;DHT22;42086;53.170;6.980;2022-08-16T03:38:45;19.20;99.90
56184;DHT22;42086;53.170;6.980;2022-08-16T03:41:11;19.20;99.90
56184;DHT22;42086;53.170;6.980;2022-08-16T03:43:38;19.20;99.90
56184;DHT22;42086;53.170;6.980;2022-08-16T03:46:04;19.10;99.90
56184;DHT22;42086;53.170;6.980;2022-08-16T03:48:33;19.10;99.90
56184;DHT22;42086;53.170;6.980;2022-08-16T03:51:01;19.10;99.90
56184;DHT22;42086;53.170;6.980;2022-08-16T03:53:28;19.10;99.90
56184;DHT22;42086;53.170;6.980;2022-08-16T03:55:54;19.10;99.90
56184;DHT22;42086;53.170;6.980;2022-08-16T03:58:20;19.10;99.90
56184;DHT22;42086;53.170;6.980;2022-08-16T04:00:46;19.00;99.90
56184;DHT22;42086;53.170;6.980;2022-08-16T04:03:14;19.00;99.90
56184;DHT22;42086;53.170;6.980;2022-08-16T04:05:45;19.00;99.90
56184;DHT22;42086;53.170;6.980;2022-08-16T04:08:13;19.00;99.90
56184;DHT22;42086;53.170;6.980;2022-08-16T04:10:40;19.00;99.90
56184;DHT22;42086;53.170;6.980;2022-08-16T04:13:06;19.00;99.90
56184;DHT22;42086;53.170;6.980;2022-08-16T04:15:32;19.00;99.90
56184;DHT22;42086;53.170;6.980;2022-08-16T04:17:58;18.90;99.90
56184;DHT22;42086;53.170;6.980;2022-08-16T04:20:26;18.90;99.90
56184;DHT22;42086;53.170;6.980;2022-08-16T04:22:52;18.90;99.90
56184;DHT22;42086;53.170;6.980;2022-08-16T04:25:19;18.90;99.90
56184;DHT22;42086;53.170;6.980;2022-08-16T04:27:45;18.90;99.90
56184;DHT22;42086;53.170;6.980;2022-08-16T04:30:13;18.90;99.90
56184;DHT22;42086;53.170;6.980;2022-08-16T04:32:41;18.80;99.90
56184;DHT22;42086;53.170;6.980;2022-08-16T04:35:09;18.80;99.90
56184;DHT22;42086;53.170;6.980;2022-08-16T04:37:37;18.80;99.90
56184;DHT22;42086;53.170;6.980;2022-08-16T04:40:04;18.80;99.90
56184;DHT22;42086;53.170;6.980;2022-08-16T04:42:31;18.80;99.90
56184;DHT22;42086;53.170;6.980;2022-08-16T04:44:57;18.80;99.90
56184;DHT22;42086;53.170;6.980;2022-08-16T04:47:25;18.80;99.90
56184;DHT22;42086;53.170;6.980;2022-08-16T04:49:53;18.80;99.90
56184;DHT22;42086;53.170;6.980;2022-08-16T04:52:20;18.70;99.90
56184;DHT22;42086;53.170;6.980;2022-08-16T04:54:46;18.80;99.90
56184;DHT22;42086;53.170;6.980;2022-08-16T04:57:13;18.80;99.90
56184;DHT22;42086;53.170;6.980;2022-08-16T04:59:39;18.70;99.90
56184;DHT22;42086;53.170;6.980;2022-08-16T05:02:05;18.80;99.90
56184;DHT22;42086;53.170;6.980;2022-08-16T05:04:31;18.70;99.90
56184;DHT22;42086;53.170;6.980;2022-08-16T05:06:58;18.80;99.90
56184;DHT22;42086;53.170;6.980;2022-08-16T05:09:24;18.80;99.90
56184;DHT22;42086;53.170;6.980;2022-08-16T05:11:50;18.80;99.90
56184;DHT22;42086;53.170;6.980;2022-08-16T05:14:17;18.70;99.90
56184;DHT22;42086;53.170;6.980;2022-08-16T05:16:43;18.80;99.90
56184;DHT22;42086;53.170;6.980;2022-08-16T05:19:09;18.80;99.90
56184;DHT22;42086;53.170;6.980;2022-08-16T05:21:35;18.80;99.90
56184;DHT22;42086;53.170;6.980;2022-08-16T05:24:04;18.90;99.90
56184;DHT22;42086;53.170;6.980;2022-08-16T05:26:31;18.90;99.90
56184;DHT22;42086;53.170;6.980;2022-08-16T05:28:58;18.90;99.90
56184;DHT22;42086;53.170;6.980;2022-08-16T05:31:28;18.90;99.90
56184;DHT22;42086;53.170;6.980;2022-08-16T05:33:55;18.90;99.90
56184;DHT22;42086;53.170;6.980;2022-08-16T05:36:21;18.90;99.90
56184;DHT22;42086;53.170;6.980;2022-08-16T05:38:48;19.00;99.90
56184;DHT22;42086;53.170;6.980;2022-08-16T05:41:14;18.90;99.90
56184;DHT22;42086;53.170;6.980;2022-08-16T05:43:41;19.00;99.90
56184;DHT22;42086;53.170;6.980;2022-08-16T05:46:07;19.00;99.90
56184;DHT22;42086;53.170;6.980;2022-08-16T05:48:33;19.10;99.90
56184;DHT22;42086;53.170;6.980;2022-08-16T05:50:59;19.20;99.90
56184;DHT22;42086;53.170;6.980;2022-08-16T05:53:24;19.40;99.90
56184;DHT22;42086;53.170;6.980;2022-08-16T05:55:51;19.50;99.90
56184;DHT22;42086;53.170;6.980;2022-08-16T05:58:16;19.50;99.90
56184;DHT22;42086;53.170;6.980;2022-08-16T06:00:42;19.70;99.90
56184;DHT22;42086;53.170;6.980;2022-08-16T06:03:08;19.70;99.90
56184;DHT22;42086;53.170;6.980;2022-08-16T06:05:34;19.80;99.90
56184;DHT22;42086;53.170;6.980;2022-08-16T06:08:00;19.90;99.90
56184;DHT22;42086;53.170;6.980;2022-08-16T06:10:26;20.00;99.90
56184;DHT22;42086;53.170;6.980;2022-08-16T06:12:52;20.00;99.90
56184;DHT22;42086;53.170;6.980;2022-08-16T06:15:19;20.20;99.90
56184;DHT22;42086;53.170;6.980;2022-08-16T06:17:45;20.30;99.90
56184;DHT22;42086;53.170;6.980;2022-08-16T06:20:26;20.30;99.90
56184;DHT22;42086;53.170;6.980;2022-08-16T06:22:55;20.30;99.90
56184;DHT22;42086;53.170;6.980;2022-08-16T06:25:22;20.30;99.90
56184;DHT22;42086;53.170;6.980;2022-08-16T06:27:51;20.30;99.90
56184;DHT22;42086;53.170;6.980;2022-08-16T06:30:18;20.20;99.90
56184;DHT22;42086;53.170;6.980;2022-08-16T06:32:44;20.20;99.90
56184;DHT22;42086;53.170;6.980;2022-08-16T06:35:12;20.20;99.90
56184;DHT22;42086;53.170;6.980;2022-08-16T06:37:38;20.30;99.90
56184;DHT22;42086;53.170;6.980;2022-08-16T06:40:06;20.40;99.90
56184;DHT22;42086;53.170;6.980;2022-08-16T06:42:32;20.50;99.90
56184;DHT22;42086;53.170;6.980;2022-08-16T06:44:58;20.60;99.90
56184;DHT22;42086;53.170;6.980;2022-08-16T06:47:24;20.70;99.90
56184;DHT22;42086;53.170;6.980;2022-08-16T06:49:50;20.80;99.90
56184;DHT22;42086;53.170;6.980;2022-08-16T06:52:16;21.00;99.90
56184;DHT22;42086;53.170;6.980;2022-08-16T06:54:43;21.10;99.90
56184;DHT22;42086;53.170;6.980;2022-08-16T06:57:09;21.20;99.90
56184;DHT22;42086;53.170;6.980;2022-08-16T06:59:39;21.30;99.90
56184;DHT22;42086;53.170;6.980;2022-08-16T07:02:05;21.30;99.90
56184;DHT22;42086;53.170;6.980;2022-08-16T07:04:31;21.40;99.90
56184;DHT22;42086;53.170;6.980;2022-08-16T07:06:57;21.50;99.90
56184;DHT22;42086;53.170;6.980;2022-08-16T07:09:23;21.60;99.90
56184;DHT22;42086;53.170;6.980;2022-08-16T07:11:49;21.70;99.90
56184;DHT22;42086;53.170;6.980;2022-08-16T07:14:15;21.80;99.90
56184;DHT22;42086;53.170;6.980;2022-08-16T07:16:41;21.90;99.90
56184;DHT22;42086;53.170;6.980;2022-08-16T07:19:08;22.00;99.90
56184;DHT22;42086;53.170;6.980;2022-08-16T07:21:34;22.10;99.90
56184;DHT22;42086;53.170;6.980;2022-08-16T07:24:02;22.10;99.90
56184;DHT22;42086;53.170;6.980;2022-08-16T07:26:29;22.30;99.90
56184;DHT22;42086;53.170;6.980;2022-08-16T07:28:55;22.50;99.90
56184;DHT22;42086;53.170;6.980;2022-08-16T07:31:21;22.60;99.90
56184;DHT22;42086;53.170;6.980;2022-08-16T07:33:47;22.70;99.90
56184;DHT22;42086;53.170;6.980;2022-08-16T07:36:14;22.80;99.90
56184;DHT22;42086;53.170;6.980;2022-08-16T07:38:41;22.80;99.90
56184;DHT22;42086;53.170;6.980;2022-08-16T07:41:08;22.80;99.90
56184;DHT22;42086;53.170;6.980;2022-08-16T07:43:34;22.90;99.90
56184;DHT22;42086;53.170;6.980;2022-08-16T07:46:00;23.00;99.90
56184;DHT22;42086;53.170;6.980;2022-08-16T07:48:26;23.10;99.90
56184;DHT22;42086;53.170;6.980;2022-08-16T07:50:53;23.30;99.90
56184;DHT22;42086;53.170;6.980;2022-08-16T07:53:19;23.40;99.90
56184;DHT22;42086;53.170;6.980;2022-08-16T07:55:45;23.50;99.90
56184;DHT22;42086;53.170;6.980;2022-08-16T07:58:12;23.60;99.90
56184;DHT22;42086;53.170;6.980;2022-08-16T08:00:38;23.70;99.90
56184;DHT22;42086;53.170;6.980;2022-08-16T08:03:04;23.80;99.90
56184;DHT22;42086;53.170;6.980;2022-08-16T08:05:31;23.90;99.90
56184;DHT22;42086;53.170;6.980;2022-08-16T08:07:57;24.00;99.90
56184;DHT22;42086;53.170;6.980;2022-08-16T08:10:24;24.10;99.90
56184;DHT22;42086;53.170;6.980;2022-08-16T08:12:52;24.30;99.90
56184;DHT22;42086;53.170;6.980;2022-08-16T08:15:20;24.30;99.90
56184;DHT22;42086;53.170;6.980;2022-08-16T08:17:47;24.50;99.90
56184;DHT22;42086;53.170;6.980;2022-08-16T08:20:17;24.60;99.90
56184;DHT22;42086;53.170;6.980;2022-08-16T08:22:46;24.60;99.90
56184;DHT22;42086;53.170;6.980;2022-08-16T08:25:13;24.60;99.90
56184;DHT22;42086;53.170;6.980;2022-08-16T08:27:40;24.60;99.90
56184;DHT22;42086;53.170;6.980;2022-08-16T08:30:08;24.70;99.90
56184;DHT22;42086;53.170;6.980;2022-08-16T08:32:35;24.70;99.90
56184;DHT22;42086;53.170;6.980;2022-08-16T08:35:03;24.80;99.90
56184;DHT22;42086;53.170;6.980;2022-08-16T08:37:30;24.80;99.90
56184;DHT22;42086;53.170;6.980;2022-08-16T08:39:56;24.90;99.90
56184;DHT22;42086;53.170;6.980;2022-08-16T08:42:22;25.00;99.90
56184;DHT22;42086;53.170;6.980;2022-08-16T08:44:49;25.20;99.90
56184;DHT22;42086;53.170;6.980;2022-08-16T08:47:15;25.20;99.90
56184;DHT22;42086;53.170;6.980;2022-08-16T08:49:41;25.30;99.90
56184;DHT22;42086;53.170;6.980;2022-08-16T08:52:07;25.40;99.90
56184;DHT22;42086;53.170;6.980;2022-08-16T08:54:34;25.60;99.90
56184;DHT22;42086;53.170;6.980;2022-08-16T08:57:00;25.60;99.90
56184;DHT22;42086;53.170;6.980;2022-08-16T08:59:26;25.60;99.90
56184;DHT22;42086;53.170;6.980;2022-08-16T09:01:52;25.70;99.90
56184;DHT22;42086;53.170;6.980;2022-08-16T09:04:18;25.80;99.90
56184;DHT22;42086;53.170;6.980;2022-08-16T09:06:45;25.80;99.90
56184;DHT22;42086;53.170;6.980;2022-08-16T09:09:11;25.80;99.90
56184;DHT22;42086;53.170;6.980;2022-08-16T09:11:37;26.00;99.90
56184;DHT22;42086;53.170;6.980;2022-08-16T09:14:04;26.00;99.90
56184;DHT22;42086;53.170;6.980;2022-08-16T09:16:30;26.20;99.90
56184;DHT22;42086;53.170;6.980;2022-08-16T09:18:58;26.30;99.90
56184;DHT22;42086;53.170;6.980;2022-08-16T09:21:25;26.40;99.90
56184;DHT22;42086;53.170;6.980;2022-08-16T09:23:51;26.40;99.90
56184;DHT22;42086;53.170;6.980;2022-08-16T09:26:17;26.50;99.90
56184;DHT22;42086;53.170;6.980;2022-08-16T09:28:43;26.60;99.90
56184;DHT22;42086;53.170;6.980;2022-08-16T09:31:13;26.60;99.90
56184;DHT22;42086;53.170;6.980;2022-08-16T09:33:40;26.80;99.90
56184;DHT22;42086;53.170;6.980;2022-08-16T09:36:06;26.70;99.90
56184;DHT22;42086;53.170;6.980;2022-08-16T09:38:33;27.00;99.90
56184;DHT22;42086;53.170;6.980;2022-08-16T09:41:01;27.10;99.90
56184;DHT22;42086;53.170;6.980;2022-08-16T09:43:28;26.90;99.90
56184;DHT22;42086;53.170;6.980;2022-08-16T09:45:54;27.10;99.90
56184;DHT22;42086;53.170;6.980;2022-08-16T09:48:20;27.10;99.90
56184;DHT22;42086;53.170;6.980;2022-08-16T09:50:46;27.20;99.90
56184;DHT22;42086;53.170;6.980;2022-08-16T09:53:16;27.40;99.80
56184;DHT22;42086;53.170;6.980;2022-08-16T09:55:45;27.40;98.60
56184;DHT22;42086;53.170;6.980;2022-08-16T09:58:12;27.70;97.30
56184;DHT22;42086;53.170;6.980;2022-08-16T10:00:38;27.60;97.50
56184;DHT22;42086;53.170;6.980;2022-08-16T10:03:04;27.60;96.40
56184;DHT22;42086;53.170;6.980;2022-08-16T10:05:33;27.80;96.20
56184;DHT22;42086;53.170;6.980;2022-08-16T10:08:03;27.80;96.10
56184;DHT22;42086;53.170;6.980;2022-08-16T10:10:30;28.00;95.50
56184;DHT22;42086;53.170;6.980;2022-08-16T10:12:56;28.00;95.20
56184;DHT22;42086;53.170;6.980;2022-08-16T10:15:46;28.00;94.30
56184;DHT22;42086;53.170;6.980;2022-08-16T10:18:13;28.00;92.60
56184;DHT22;42086;53.170;6.980;2022-08-16T10:20:42;28.20;93.80
56184;DHT22;42086;53.170;6.980;2022-08-16T10:23:12;28.30;93.60
56184;DHT22;42086;53.170;6.980;2022-08-16T10:25:41;28.50;92.20
56184;DHT22;42086;53.170;6.980;2022-08-16T10:28:08;28.40;92.10
56184;DHT22;42086;53.170;6.980;2022-08-16T10:30:36;28.70;92.40
56184;DHT22;42086;53.170;6.980;2022-08-16T10:33:03;28.60;91.10
56184;DHT22;42086;53.170;6.980;2022-08-16T10:35:29;28.80;86.20
56184;DHT22;42086;53.170;6.980;2022-08-16T10:37:56;28.60;85.30
56184;DHT22;42086;53.170;6.980;2022-08-16T10:40:22;28.40;84.80
56184;DHT22;42086;53.170;6.980;2022-08-16T10:42:48;28.70;84.20
56184;DHT22;42086;53.170;6.980;2022-08-16T10:45:16;28.70;82.80
56184;DHT22;42086;53.170;6.980;2022-08-16T10:47:42;28.80;81.30
56184;DHT22;42086;53.170;6.980;2022-08-16T10:50:09;29.00;80.70
56184;DHT22;42086;53.170;6.980;2022-08-16T10:52:35;29.30;80.00
56184;DHT22;42086;53.170;6.980;2022-08-16T10:55:02;29.20;78.80
56184;DHT22;42086;53.170;6.980;2022-08-16T10:57:28;29.20;72.20
56184;DHT22;42086;53.170;6.980;2022-08-16T10:59:57;29.00;74.50
56184;DHT22;42086;53.170;6.980;2022-08-16T11:02:23;29.30;76.00
56184;DHT22;42086;53.170;6.980;2022-08-16T11:04:51;29.10;73.40
56184;DHT22;42086;53.170;6.980;2022-08-16T11:07:18;29.20;73.70
56184;DHT22;42086;53.170;6.980;2022-08-16T11:09:47;29.20;72.90
56184;DHT22;42086;53.170;6.980;2022-08-16T11:12:14;29.20;71.40
56184;DHT22;42086;53.170;6.980;2022-08-16T11:14:40;29.20;70.70
56184;DHT22;42086;53.170;6.980;2022-08-16T11:17:06;29.40;69.70
56184;DHT22;42086;53.170;6.980;2022-08-16T11:19:35;29.40;70.90
56184;DHT22;42086;53.170;6.980;2022-08-16T11:22:01;29.40;68.40
56184;DHT22;42086;53.170;6.980;2022-08-16T11:24:28;29.50;66.20
56184;DHT22;42086;53.170;6.980;2022-08-16T11:26:55;29.60;66.70
56184;DHT22;42086;53.170;6.980;2022-08-16T11:29:22;29.70;66.50
56184;DHT22;42086;53.170;6.980;2022-08-16T11:31:48;29.70;67.30
56184;DHT22;42086;53.170;6.980;2022-08-16T11:34:16;29.70;66.20
56184;DHT22;42086;53.170;6.980;2022-08-16T11:36:42;29.80;65.70
56184;DHT22;42086;53.170;6.980;2022-08-16T11:39:08;29.60;65.20
56184;DHT22;42086;53.170;6.980;2022-08-16T11:41:34;29.70;64.70
56184;DHT22;42086;53.170;6.980;2022-08-16T11:44:04;29.70;64.10
56184;DHT22;42086;53.170;6.980;2022-08-16T11:46:31;30.00;64.30
56184;DHT22;42086;53.170;6.980;2022-08-16T11:49:00;30.00;62.50
56184;DHT22;42086;53.170;6.980;2022-08-16T11:51:26;29.90;61.90
56184;DHT22;42086;53.170;6.980;2022-08-16T11:53:52;29.80;63.00
56184;DHT22;42086;53.170;6.980;2022-08-16T11:56:19;29.90;63.20
56184;DHT22;42086;53.170;6.980;2022-08-16T11:58:45;29.90;63.10
56184;DHT22;42086;53.170;6.980;2022-08-16T12:01:11;30.10;63.50
56184;DHT22;42086;53.170;6.980;2022-08-16T12:03:39;30.20;63.30
56184;DHT22;42086;53.170;6.980;2022-08-16T12:06:12;30.70;64.40
56184;DHT22;42086;53.170;6.980;2022-08-16T12:08:40;30.60;62.70
56184;DHT22;42086;53.170;6.980;2022-08-16T12:11:06;30.90;62.50
56184;DHT22;42086;53.170;6.980;2022-08-16T12:13:32;30.70;62.80
56184;DHT22;42086;53.170;6.980;2022-08-16T12:15:58;30.80;62.80
56184;DHT22;42086;53.170;6.980;2022-08-16T12:18:24;30.90;62.40
56184;DHT22;42086;53.170;6.980;2022-08-16T12:20:50;30.80;62.70
56184;DHT22;42086;53.170;6.980;2022-08-16T12:23:16;30.80;62.00
56184;DHT22;42086;53.170;6.980;2022-08-16T12:25:43;30.80;62.10
56184;DHT22;42086;53.170;6.980;2022-08-16T12:28:09;30.60;62.30
56184;DHT22;42086;53.170;6.980;2022-08-16T12:30:38;30.70;62.60
56184;DHT22;42086;53.170;6.980;2022-08-16T12:33:06;30.80;61.40
56184;DHT22;42086;53.170;6.980;2022-08-16T12:35:34;31.10;62.60
56184;DHT22;42086;53.170;6.980;2022-08-16T12:38:01;31.40;62.00
56184;DHT22;42086;53.170;6.980;2022-08-16T12:40:32;31.30;61.70
56184;DHT22;42086;53.170;6.980;2022-08-16T12:43:01;31.50;61.10
56184;DHT22;42086;53.170;6.980;2022-08-16T12:45:33;31.60;60.50
56184;DHT22;42086;53.170;6.980;2022-08-16T12:47:59;31.90;59.60
56184;DHT22;42086;53.170;6.980;2022-08-16T12:50:44;31.90;59.70
56184;DHT22;42086;53.170;6.980;2022-08-16T12:53:10;31.80;59.90
56184;DHT22;42086;53.170;6.980;2022-08-16T12:55:37;32.30;59.80
56184;DHT22;42086;53.170;6.980;2022-08-16T12:58:03;32.60;59.60
56184;DHT22;42086;53.170;6.980;2022-08-16T13:00:31;32.40;58.40
56184;DHT22;42086;53.170;6.980;2022-08-16T13:02:59;32.50;57.50
56184;DHT22;42086;53.170;6.980;2022-08-16T13:05:26;32.70;56.10
56184;DHT22;42086;53.170;6.980;2022-08-16T13:07:53;32.70;56.30
56184;DHT22;42086;53.170;6.980;2022-08-16T13:10:23;32.50;56.00
56184;DHT22;42086;53.170;6.980;2022-08-16T13:12:51;33.00;55.90
56184;DHT22;42086;53.170;6.980;2022-08-16T13:15:22;33.70;55.80
56184;DHT22;42086;53.170;6.980;2022-08-16T13:17:49;34.20;53.90
56184;DHT22;42086;53.170;6.980;2022-08-16T13:20:18;33.90;54.60
56184;DHT22;42086;53.170;6.980;2022-08-16T13:22:53;33.90;54.80
56184;DHT22;42086;53.170;6.980;2022-08-16T13:25:24;33.50;54.80
56184;DHT22;42086;53.170;6.980;2022-08-16T13:27:53;33.20;54.20
56184;DHT22;42086;53.170;6.980;2022-08-16T13:30:19;32.90;54.60
56184;DHT22;42086;53.170;6.980;2022-08-16T13:32:45;31.90;54.00
56184;DHT22;42086;53.170;6.980;2022-08-16T13:35:12;31.60;54.70
56184;DHT22;42086;53.170;6.980;2022-08-16T13:37:37;31.20;55.20
56184;DHT22;42086;53.170;6.980;2022-08-16T13:40:04;30.90;55.50
56184;DHT22;42086;53.170;6.980;2022-08-16T13:42:31;30.80;55.90
56184;DHT22;42086;53.170;6.980;2022-08-16T13:44:57;30.70;56.80
56184;DHT22;42086;53.170;6.980;2022-08-16T13:47:24;30.50;56.90
56184;DHT22;42086;53.170;6.980;2022-08-16T13:49:51;30.80;57.80
56184;DHT22;42086;53.170;6.980;2022-08-16T13:52:17;31.50;58.80
56184;DHT22;42086;53.170;6.980;2022-08-16T13:54:44;32.10;57.30
56184;DHT22;42086;53.170;6.980;2022-08-16T13:57:10;32.90;56.50
56184;DHT22;42086;53.170;6.980;2022-08-16T13:59:36;33.40;56.40
56184;DHT22;42086;53.170;6.980;2022-08-16T14:02:04;34.10;55.60
56184;DHT22;42086;53.170;6.980;2022-08-16T14:04:33;34.60;54.20
56184;DHT22;42086;53.170;6.980;2022-08-16T14:07:01;35.10;53.60
56184;DHT22;42086;53.170;6.980;2022-08-16T14:09:29;34.90;52.30
56184;DHT22;42086;53.170;6.980;2022-08-16T14:11:56;34.50;51.90
56184;DHT22;42086;53.170;6.980;2022-08-16T14:14:23;34.80;50.40
56184;DHT22;42086;53.170;6.980;2022-08-16T14:16:50;35.00;51.10
56184;DHT22;42086;53.170;6.980;2022-08-16T14:19:16;34.60;50.80
56184;DHT22;42086;53.170;6.980;2022-08-16T14:21:44;34.60;50.90
56184;DHT22;42086;53.170;6.980;2022-08-16T14:24:11;35.40;50.20
56184;DHT22;42086;53.170;6.980;2022-08-16T14:26:41;35.50;50.40
56184;DHT22;42086;53.170;6.980;2022-08-16T14:29:08;35.50;49.40
56184;DHT22;42086;53.170;6.980;2022-08-16T14:31:36;35.30;49.20
56184;DHT22;42086;53.170;6.980;2022-08-16T14:34:03;36.10;49.20
56184;DHT22;42086;53.170;6.980;2022-08-16T14:36:30;35.40;48.90
56184;DHT22;42086;53.170;6.980;2022-08-16T14:38:58;35.10;48.60
56184;DHT22;42086;53.170;6.980;2022-08-16T14:41:25;35.30;49.70
56184;DHT22;42086;53.170;6.980;2022-08-16T14:43:51;35.90;49.90
56184;DHT22;42086;53.170;6.980;2022-08-16T14:46:17;35.90;48.80
56184;DHT22;42086;53.170;6.980;2022-08-16T14:48:43;35.50;48.80
56184;DHT22;42086;53.170;6.980;2022-08-16T14:51:09;35.70;48.10
56184;DHT22;42086;53.170;6.980;2022-08-16T14:53:35;35.60;49.20
56184;DHT22;42086;53.170;6.980;2022-08-16T14:56:02;35.60;48.40
56184;DHT22;42086;53.170;6.980;2022-08-16T14:58:28;35.90;48.10
56184;DHT22;42086;53.170;6.980;2022-08-16T15:00:54;35.20;47.80
56184;DHT22;42086;53.170;6.980;2022-08-16T15:03:22;35.50;47.60
56184;DHT22;42086;53.170;6.980;2022-08-16T15:05:48;34.30;48.70
56184;DHT22;42086;53.170;6.980;2022-08-16T15:08:14;33.80;48.60
56184;DHT22;42086;53.170;6.980;2022-08-16T15:10:42;33.00;49.60
56184;DHT22;42086;53.170;6.980;2022-08-16T15:13:08;32.60;49.90
56184;DHT22;42086;53.170;6.980;2022-08-16T15:15:36;32.40;50.50
56184;DHT22;42086;53.170;6.980;2022-08-16T15:18:02;32.40;50.30
56184;DHT22;42086;53.170;6.980;2022-08-16T15:20:30;32.20;49.70
56184;DHT22;42086;53.170;6.980;2022-08-16T15:22:59;32.40;49.90
56184;DHT22;42086;53.170;6.980;2022-08-16T15:25:35;33.00;49.40
56184;DHT22;42086;53.170;6.980;2022-08-16T15:28:03;33.10;49.50
56184;DHT22;42086;53.170;6.980;2022-08-16T15:30:30;33.30;49.90
56184;DHT22;42086;53.170;6.980;2022-08-16T15:33:05;33.30;50.70
56184;DHT22;42086;53.170;6.980;2022-08-16T15:35:38;33.10;51.20